createdAt,value
2022-09-23T00:00:12.396Z,19.87
2022-09-23T00:02:41.265Z,16.13
2022-09-23T00:05:11.663Z,16.50
2022-09-23T00:07:40.338Z,18.63
2022-09-23T00:10:11.279Z,14.90
2022-09-23T00:12:39.943Z,12.27
2022-09-23T00:15:11.383Z,11.53
2022-09-23T00:17:40.726Z,11.60
2022-09-23T00:20:10.942Z,13.60
2022-09-23T00:22:39.720Z,19.97
2022-09-23T00:25:11.684Z,16.23
2022-09-23T00:27:42.237Z,13.40
2022-09-23T00:30:12.164Z,12.03
2022-09-23T00:32:40.979Z,11.47
2022-09-23T00:35:10.933Z,10.23
2022-09-23T00:37:39.633Z,10.40
2022-09-23T00:40:12.704Z,10.33
2022-09-23T00:42:48.255Z,9.90
2022-09-23T00:45:17.943Z,9.50
2022-09-23T00:47:49.375Z,9.30
2022-09-23T00:50:25.052Z,9.37
2022-09-23T00:52:56.973Z,9.03
2022-09-23T00:55:31.035Z,11.23
2022-09-23T00:58:01.763Z,9.43
2022-09-23T01:00:30.499Z,12.23
2022-09-23T01:03:00.150Z,19.17
2022-09-23T01:05:29.003Z,21.83
2022-09-23T01:07:59.264Z,23.83
2022-09-23T01:10:37.429Z,21.53
2022-09-23T01:13:16.427Z,21.73
2022-09-23T01:15:53.011Z,20.77
2022-09-23T01:18:33.394Z,33.23
2022-09-23T01:21:16.927Z,39.20
2022-09-23T01:24:24.663Z,26.83
2022-09-23T01:27:16.676Z,21.07
2022-09-23T01:30:09.866Z,17.47
2022-09-23T01:33:09.639Z,15.73
2022-09-23T01:36:00.596Z,12.43
2022-09-23T01:38:38.743Z,12.67
2022-09-23T01:41:34.738Z,12.73
2022-09-23T01:44:08.412Z,11.93
2022-09-23T01:46:43.530Z,12.37
2022-09-23T01:49:20.398Z,12.47
2022-09-23T01:51:54.475Z,11.43
2022-09-23T01:54:30.096Z,12.30
2022-09-23T01:57:03.909Z,11.60
2022-09-23T01:59:37.517Z,12.30
2022-09-23T02:02:10.554Z,13.90
2022-09-23T02:04:47.435Z,14.53
2022-09-23T02:07:21.959Z,17.90
2022-09-23T02:09:55.034Z,19.60
2022-09-23T02:12:28.777Z,19.93
2022-09-23T02:15:05.808Z,20.10
2022-09-23T02:17:39.850Z,20.50
2022-09-23T02:20:12.765Z,21.00
2022-09-23T02:22:46.511Z,22.37
2022-09-23T02:25:16.551Z,23.23
2022-09-23T02:27:55.651Z,25.60
2022-09-23T02:30:28.193Z,23.30
2022-09-23T02:33:04.639Z,22.67
2022-09-23T02:35:40.538Z,22.87
2022-09-23T02:38:21.846Z,22.30
2022-09-23T02:41:00.296Z,22.10
2022-09-23T02:43:34.067Z,21.40
2022-09-23T02:46:03.477Z,21.17
2022-09-23T02:48:36.155Z,20.47
2022-09-23T02:51:06.774Z,19.17
2022-09-23T02:53:36.783Z,16.57
2022-09-23T02:56:16.570Z,15.23
2022-09-23T02:58:47.160Z,12.60
2022-09-23T03:01:28.009Z,13.00
2022-09-23T03:04:07.910Z,11.83
2022-09-23T03:06:49.501Z,12.43
2022-09-23T03:09:24.572Z,14.87
2022-09-23T03:12:06.262Z,16.43
2022-09-23T03:14:45.141Z,22.43
2022-09-23T03:17:38.631Z,23.33
2022-09-23T03:20:14.054Z,26.33
2022-09-23T03:22:48.783Z,26.17
2022-09-23T03:25:22.631Z,25.30
2022-09-23T03:27:52.225Z,29.57
2022-09-23T03:30:21.875Z,24.20
2022-09-23T03:32:52.551Z,23.70
2022-09-23T03:35:24.584Z,23.27
2022-09-23T03:38:00.748Z,23.47
2022-09-23T03:40:32.082Z,28.57
2022-09-23T03:43:02.883Z,25.03
2022-09-23T03:45:34.114Z,18.70
2022-09-23T03:48:03.473Z,14.50
2022-09-23T03:50:32.108Z,14.00
2022-09-23T03:53:02.131Z,13.03
2022-09-23T03:55:31.542Z,12.63
2022-09-23T03:58:00.811Z,11.83
2022-09-23T04:00:29.503Z,12.93
2022-09-23T04:02:58.246Z,12.77
2022-09-23T04:05:26.862Z,13.30
2022-09-23T04:07:55.907Z,12.30
2022-09-23T04:10:25.935Z,12.17
2022-09-23T04:12:54.755Z,11.43
2022-09-23T04:15:23.458Z,11.33
2022-09-23T04:17:52.172Z,12.63
2022-09-23T04:20:20.850Z,13.23
2022-09-23T04:22:49.481Z,12.47
2022-09-23T04:25:18.243Z,11.10
2022-09-23T04:27:48.320Z,11.47
2022-09-23T04:30:18.996Z,15.73
2022-09-23T04:33:06.749Z,18.43
2022-09-23T04:35:39.960Z,20.77
2022-09-23T04:38:10.316Z,20.27
2022-09-23T04:40:39.747Z,19.40
2022-09-23T04:43:13.486Z,18.90
2022-09-23T04:45:42.334Z,19.70
2022-09-23T04:48:11.587Z,19.23
2022-09-23T04:50:40.917Z,19.10
2022-09-23T04:53:09.752Z,27.90
2022-09-23T04:55:38.415Z,19.50
2022-09-23T04:58:07.811Z,18.63
2022-09-23T05:00:38.170Z,18.80
2022-09-23T05:03:06.925Z,18.73
2022-09-23T05:05:35.470Z,18.17
2022-09-23T05:08:04.307Z,15.83
2022-09-23T05:10:32.991Z,14.47
2022-09-23T05:13:01.637Z,14.93
2022-09-23T05:15:30.361Z,15.30
2022-09-23T05:18:00.778Z,16.40
2022-09-23T05:20:29.588Z,15.90
2022-09-23T05:22:58.734Z,19.70
2022-09-23T05:25:27.443Z,20.23
2022-09-23T05:27:56.430Z,22.40
2022-09-23T05:30:25.285Z,20.97
2022-09-23T05:32:54.352Z,24.70
2022-09-23T05:35:24.505Z,29.87
2022-09-23T05:37:53.220Z,28.57
2022-09-23T05:40:21.918Z,27.93
2022-09-23T05:42:51.646Z,27.07
2022-09-23T05:45:20.434Z,31.30
2022-09-23T05:47:49.158Z,29.23
2022-09-23T05:50:18.036Z,28.90
2022-09-23T05:52:48.011Z,26.93
2022-09-23T05:55:16.975Z,26.10
2022-09-23T05:57:45.552Z,24.97
2022-09-23T06:00:14.819Z,22.67
2022-09-23T06:02:44.148Z,23.90
2022-09-23T06:05:13.244Z,24.33
2022-09-23T06:07:41.908Z,24.43
2022-09-23T06:10:12.287Z,25.03
2022-09-23T06:12:42.628Z,24.73
2022-09-23T06:15:12.309Z,25.87
2022-09-23T06:17:41.106Z,24.53
2022-09-23T06:20:10.752Z,25.27
2022-09-23T06:22:40.243Z,22.57
2022-09-23T06:25:09.722Z,20.57
2022-09-23T06:27:40.299Z,20.90
2022-09-23T06:30:10.225Z,20.10
2022-09-23T06:32:38.947Z,19.10
2022-09-23T06:35:18.118Z,19.23
2022-09-23T06:37:51.151Z,19.77
2022-09-23T06:40:20.387Z,19.07
2022-09-23T06:42:52.464Z,17.97
2022-09-23T06:45:21.163Z,17.20
2022-09-23T06:47:56.389Z,15.87
2022-09-23T06:50:26.526Z,13.73
2022-09-23T06:52:56.497Z,11.53
2022-09-23T06:55:28.035Z,10.87
2022-09-23T06:58:00.066Z,10.07
2022-09-23T07:00:29.401Z,9.57
2022-09-23T07:02:58.112Z,9.53
2022-09-23T07:05:26.874Z,10.13
2022-09-23T07:07:55.483Z,10.00
2022-09-23T07:10:24.248Z,8.60
2022-09-23T07:12:52.882Z,8.40
2022-09-23T07:15:23.170Z,7.67
2022-09-23T07:17:51.947Z,7.33
2022-09-23T07:20:20.579Z,7.47
2022-09-23T07:22:52.465Z,7.93
2022-09-23T07:25:21.335Z,7.97
2022-09-23T07:27:50.170Z,8.83
2022-09-23T07:30:24.764Z,9.80
2022-09-23T07:32:55.609Z,9.70
2022-09-23T07:35:24.334Z,9.70
2022-09-23T07:37:53.070Z,10.00
2022-09-23T07:40:21.781Z,8.77
2022-09-23T07:42:50.623Z,9.73
2022-09-23T07:45:22.410Z,9.43
2022-09-23T07:47:51.354Z,11.60
2022-09-23T07:50:22.678Z,9.93
2022-09-23T07:52:52.620Z,10.27
2022-09-23T07:55:21.983Z,16.17
2022-09-23T07:58:03.944Z,14.63
2022-09-23T08:00:39.143Z,10.23
2022-09-23T08:03:07.946Z,8.23
2022-09-23T08:05:38.999Z,7.70
2022-09-23T08:08:08.146Z,10.80
2022-09-23T08:10:36.796Z,8.53
2022-09-23T08:13:05.495Z,6.30
2022-09-23T08:15:34.534Z,6.60
2022-09-23T08:18:03.206Z,5.47
2022-09-23T08:20:48.138Z,5.30
2022-09-23T08:23:20.210Z,5.07
2022-09-23T08:25:49.450Z,5.33
2022-09-23T08:28:19.381Z,5.90
2022-09-23T08:30:50.900Z,5.13
2022-09-23T08:33:23.130Z,6.30
2022-09-23T08:35:52.758Z,5.43
2022-09-23T08:38:22.993Z,4.70
2022-09-23T08:40:52.171Z,3.87
2022-09-23T08:43:26.738Z,3.70
2022-09-23T08:45:58.974Z,3.13
2022-09-23T08:48:32.100Z,2.40
2022-09-23T08:51:25.517Z,4.93
2022-09-23T08:53:55.590Z,2.60
2022-09-23T08:56:25.182Z,1.63
2022-09-23T08:59:03.498Z,2.00
2022-09-23T09:01:38.514Z,3.40
2022-09-23T09:04:20.265Z,3.47
2022-09-23T09:06:55.872Z,3.17
2022-09-23T09:09:42.376Z,12.80
2022-09-23T09:12:17.161Z,5.40
2022-09-23T09:14:56.345Z,3.70
2022-09-23T09:17:37.101Z,12.43
2022-09-23T09:20:20.163Z,9.67
2022-09-23T09:22:57.950Z,8.43
2022-09-23T09:25:52.586Z,12.23
2022-09-23T09:28:26.948Z,6.43
2022-09-23T09:30:58.978Z,2.57
2022-09-23T09:33:32.538Z,5.30
2022-09-23T09:36:20.948Z,4.20
2022-09-23T09:38:51.312Z,3.70
2022-09-23T09:41:24.869Z,2.60
2022-09-23T09:44:00.939Z,2.57
2022-09-23T09:46:45.358Z,2.40
2022-09-23T09:49:24.212Z,2.30
2022-09-23T09:52:13.862Z,2.53
2022-09-23T09:54:43.719Z,1.80
2022-09-23T09:57:36.535Z,3.37
2022-09-23T10:00:35.694Z,3.67
2022-09-23T10:03:21.319Z,3.17
2022-09-23T10:05:52.747Z,3.73
2022-09-23T10:08:28.078Z,3.90
2022-09-23T10:11:03.655Z,5.40
2022-09-23T10:13:33.953Z,13.27
2022-09-23T10:16:04.431Z,6.60
2022-09-23T10:18:37.900Z,3.30
2022-09-23T10:21:12.466Z,3.03
2022-09-23T10:23:43.514Z,2.20
2022-09-23T10:26:14.187Z,2.17
2022-09-23T10:28:55.805Z,2.07
2022-09-23T10:31:27.633Z,1.60
2022-09-23T10:34:01.111Z,2.20
2022-09-23T10:36:31.411Z,1.90
2022-09-23T10:39:16.400Z,1.90
2022-09-23T10:42:18.071Z,1.83
2022-09-23T10:45:21.804Z,2.37
2022-09-23T10:47:57.573Z,1.80
2022-09-23T10:50:49.244Z,1.90
2022-09-23T10:53:26.397Z,2.17
2022-09-23T10:56:11.177Z,1.90
2022-09-23T10:59:09.351Z,7.60
2022-09-23T11:01:50.843Z,2.50
2022-09-23T11:04:39.122Z,2.53
2022-09-23T11:07:19.217Z,2.33
2022-09-23T11:10:04.502Z,3.90
2022-09-23T11:12:44.686Z,4.90
2022-09-23T11:15:27.795Z,3.50
2022-09-23T11:18:23.598Z,2.17
2022-09-23T11:21:07.363Z,4.17
2022-09-23T11:23:55.428Z,2.13
2022-09-23T11:26:38.028Z,1.83
2022-09-23T11:29:35.243Z,1.80
2022-09-23T11:32:21.189Z,1.70
2022-09-23T11:35:04.335Z,1.87
2022-09-23T11:37:37.577Z,1.43
2022-09-23T11:40:15.772Z,1.67
2022-09-23T11:42:53.084Z,1.93
2022-09-23T11:45:46.733Z,1.77
2022-09-23T11:48:19.954Z,2.07
2022-09-23T11:50:56.482Z,2.50
2022-09-23T11:53:34.266Z,2.50
2022-09-23T11:56:07.335Z,2.47
2022-09-23T11:58:42.238Z,2.20
2022-09-23T12:01:22.608Z,2.60
2022-09-23T12:04:16.405Z,2.37
2022-09-23T12:06:51.752Z,3.30
2022-09-23T12:09:41.318Z,3.23
2022-09-23T12:12:26.353Z,2.70
2022-09-23T12:15:02.213Z,2.53
2022-09-23T12:17:52.843Z,2.40
2022-09-23T12:21:00.686Z,3.10
2022-09-23T12:23:45.449Z,2.30
2022-09-23T12:26:18.291Z,2.33
2022-09-23T12:28:50.476Z,2.00
2022-09-23T12:31:21.828Z,1.80
2022-09-23T12:33:52.132Z,1.87
2022-09-23T12:36:28.142Z,2.00
2022-09-23T12:39:04.034Z,3.20
2022-09-23T12:41:37.675Z,2.70
2022-09-23T12:44:29.793Z,2.20
2022-09-23T12:47:37.847Z,2.97
2022-09-23T12:50:51.095Z,1.93
2022-09-23T12:54:07.592Z,1.83
2022-09-23T14:14:30.638Z,2.63
2022-09-23T14:17:01.651Z,2.70
2022-09-23T14:19:30.506Z,2.10
2022-09-23T14:21:59.690Z,2.53
2022-09-23T14:24:33.806Z,4.50
2022-09-23T14:27:16.051Z,3.30
2022-09-23T14:29:47.955Z,2.47
2022-09-23T14:32:23.567Z,2.20
2022-09-23T14:34:55.132Z,2.20
2022-09-23T14:37:47.860Z,2.20
2022-09-23T14:40:19.535Z,2.50
2022-09-23T14:42:51.585Z,2.20
2022-09-23T14:45:23.554Z,2.00
2022-09-23T14:47:58.067Z,2.73
2022-09-23T14:50:40.818Z,2.90
2022-09-23T14:53:33.875Z,2.27
2022-09-23T14:56:20.721Z,1.70
2022-09-23T14:58:54.649Z,2.50
2022-09-23T15:01:34.070Z,2.43
2022-09-23T15:04:16.534Z,2.47
2022-09-23T15:06:49.890Z,1.70
2022-09-23T15:09:23.860Z,1.87
2022-09-23T15:12:00.722Z,1.93
2022-09-23T15:14:41.003Z,2.10
2022-09-23T15:17:21.710Z,2.50
2022-09-23T15:19:56.837Z,2.87
2022-09-23T15:22:26.646Z,2.20
2022-09-23T15:25:10.861Z,1.90
2022-09-23T15:27:43.444Z,2.20
2022-09-23T15:30:19.240Z,2.00
2022-09-23T15:32:49.470Z,2.40
2022-09-23T15:35:25.602Z,2.90
2022-09-23T15:37:59.155Z,2.30
2022-09-23T15:40:32.940Z,2.20
2022-09-23T15:43:08.791Z,2.40
2022-09-23T15:45:43.086Z,4.00
2022-09-23T15:48:15.384Z,1.93
2022-09-23T15:51:07.147Z,2.50
2022-09-23T15:53:36.763Z,2.03
2022-09-23T15:56:06.781Z,2.07
2022-09-23T15:58:35.446Z,1.90
2022-09-23T16:01:05.295Z,2.23
2022-09-23T16:03:34.096Z,2.13
2022-09-23T16:06:06.558Z,2.10
2022-09-23T16:08:35.244Z,2.10
2022-09-23T16:11:04.331Z,3.10
2022-09-23T16:13:32.940Z,4.07
2022-09-23T16:16:02.129Z,4.10
2022-09-23T16:18:31.138Z,7.70
2022-09-23T16:20:59.756Z,8.83
2022-09-23T16:23:38.998Z,9.47
2022-09-23T16:26:15.381Z,9.40
2022-09-23T16:28:45.063Z,9.47
2022-09-23T16:31:16.100Z,5.93
2022-09-23T16:33:45.440Z,5.37
2022-09-23T16:36:19.132Z,3.90
2022-09-23T16:38:49.529Z,3.00
2022-09-23T16:41:18.490Z,2.77
2022-09-23T16:43:47.234Z,4.27
2022-09-23T16:46:19.780Z,4.90
2022-09-23T16:48:52.972Z,4.43
2022-09-23T16:51:24.094Z,6.80
2022-09-23T16:53:55.945Z,3.90
2022-09-23T16:56:28.837Z,4.87
2022-09-23T16:58:58.567Z,5.77
2022-09-23T17:01:48.224Z,5.87
2022-09-23T17:04:18.496Z,6.43
2022-09-23T17:06:50.568Z,6.83
2022-09-23T17:09:23.116Z,10.53
2022-09-23T17:12:00.269Z,8.07
2022-09-23T17:14:31.761Z,8.77
2022-09-23T17:17:01.512Z,11.20
2022-09-23T17:19:30.253Z,11.47
2022-09-23T17:21:59.258Z,13.60
2022-09-23T17:24:30.032Z,11.07
2022-09-23T17:26:59.284Z,9.60
2022-09-23T17:29:29.239Z,13.67
2022-09-23T17:31:58.558Z,11.57
2022-09-23T17:34:29.067Z,9.93
2022-09-23T17:37:02.706Z,6.37
2022-09-23T17:39:33.136Z,5.90
2022-09-23T17:42:03.932Z,5.13
2022-09-23T17:44:51.339Z,4.60
2022-09-23T17:47:25.617Z,5.00
2022-09-23T17:49:54.645Z,5.40
2022-09-23T17:52:23.558Z,4.27
2022-09-23T17:54:55.272Z,4.50
2022-09-23T17:57:24.312Z,3.90
2022-09-23T17:59:53.916Z,4.30
2022-09-23T18:02:23.045Z,4.20
2022-09-23T18:04:52.453Z,4.20
2022-09-23T18:07:24.553Z,4.90
2022-09-23T18:09:54.877Z,4.40
2022-09-23T18:12:30.376Z,4.00
2022-09-23T18:15:04.526Z,3.80
2022-09-23T18:17:39.212Z,3.90
2022-09-23T18:20:31.120Z,4.50
2022-09-23T18:23:01.073Z,4.50
2022-09-23T18:25:40.088Z,7.20
2022-09-23T18:28:11.094Z,5.87
2022-09-23T18:30:40.306Z,5.83
2022-09-23T18:33:12.552Z,6.40
2022-09-23T18:35:42.541Z,5.43
2022-09-23T18:38:15.500Z,4.80
2022-09-23T18:40:56.795Z,5.43
2022-09-23T18:43:33.808Z,5.47
2022-09-23T18:46:11.888Z,6.43
2022-09-23T18:48:58.875Z,6.60
2022-09-23T18:51:32.010Z,4.30
2022-09-23T18:54:04.810Z,4.40
2022-09-23T18:56:42.213Z,8.47
2022-09-23T18:59:15.097Z,6.73
2022-09-23T19:01:47.486Z,5.70
2022-09-23T19:04:22.778Z,3.80
2022-09-23T19:06:53.975Z,3.70
2022-09-23T19:09:43.906Z,3.83
2022-09-23T19:12:14.071Z,6.33
2022-09-23T19:14:47.988Z,4.43
2022-09-23T19:17:16.897Z,3.90
2022-09-23T19:19:46.226Z,3.50
2022-09-23T19:22:15.263Z,4.07
2022-09-23T19:24:43.996Z,4.20
2022-09-23T19:27:15.064Z,7.50
2022-09-23T19:29:45.589Z,22.53
2022-09-23T19:32:16.097Z,19.47
2022-09-23T19:34:46.540Z,12.93
2022-09-23T19:37:16.779Z,10.33
2022-09-23T19:39:46.106Z,9.67
2022-09-23T19:42:16.207Z,10.23
2022-09-23T19:44:44.906Z,8.20
2022-09-23T19:47:15.801Z,13.43
2022-09-23T19:49:44.683Z,10.00
2022-09-23T19:52:15.167Z,7.03
2022-09-23T19:54:44.606Z,7.53
2022-09-23T19:57:18.051Z,8.57
2022-09-23T19:59:47.736Z,10.63
2022-09-23T20:02:17.322Z,9.27
2022-09-23T20:04:46.697Z,8.37
2022-09-23T20:07:16.116Z,7.63
2022-09-23T20:09:45.209Z,13.20
2022-09-23T20:12:14.753Z,18.53
2022-09-23T20:14:46.287Z,18.40
2022-09-23T20:17:17.687Z,17.83
2022-09-23T20:19:47.585Z,16.57
2022-09-23T20:22:33.062Z,16.00
2022-09-23T20:25:20.342Z,15.77
2022-09-23T20:27:52.848Z,15.37
2022-09-23T20:30:22.985Z,14.53
2022-09-23T20:32:51.693Z,14.63
2022-09-23T20:35:20.346Z,13.60
2022-09-23T20:37:49.642Z,13.07
2022-09-23T20:40:18.598Z,12.03
2022-09-23T20:42:49.878Z,12.40
2022-09-23T20:45:18.602Z,11.80
2022-09-23T20:47:49.941Z,11.00
2022-09-23T20:50:18.691Z,11.63
2022-09-23T20:52:47.465Z,11.93
2022-09-23T20:55:16.376Z,12.50
2022-09-23T20:57:45.440Z,13.63
2022-09-23T21:00:15.604Z,15.20
2022-09-23T21:02:49.075Z,17.07
2022-09-23T21:05:18.486Z,15.30
2022-09-23T21:07:47.933Z,17.47
2022-09-23T21:10:17.004Z,14.77
2022-09-23T21:12:46.201Z,17.57
2022-09-23T21:15:14.879Z,14.67
2022-09-23T21:17:43.648Z,13.47
2022-09-23T21:20:13.695Z,13.83
2022-09-23T21:22:42.319Z,12.53
2022-09-23T21:25:28.460Z,13.00
2022-09-23T21:27:58.630Z,12.17
2022-09-23T21:30:27.661Z,11.23
2022-09-23T21:32:57.326Z,11.27
2022-09-23T21:35:27.579Z,10.10
2022-09-23T21:37:56.210Z,11.40
2022-09-23T21:40:45.743Z,12.00
2022-09-23T21:43:14.619Z,9.47
2022-09-23T21:45:43.292Z,9.13
2022-09-23T21:48:12.035Z,7.87
2022-09-23T21:50:42.066Z,9.60
2022-09-23T21:53:10.842Z,8.27
2022-09-23T21:55:39.738Z,7.10
2022-09-23T21:58:08.420Z,7.57
2022-09-23T22:00:37.156Z,7.47
2022-09-23T22:03:06.148Z,6.73
2022-09-23T22:05:34.804Z,8.37
2022-09-23T22:08:04.983Z,8.13
2022-09-23T22:10:33.644Z,11.27
2022-09-23T22:13:02.299Z,15.50
2022-09-23T22:15:35.979Z,14.70
2022-09-23T22:18:23.736Z,12.83
2022-09-23T22:20:54.665Z,11.60
2022-09-23T22:23:24.840Z,11.53
2022-09-23T22:26:03.459Z,12.70
2022-09-23T22:29:03.292Z,10.60
2022-09-23T22:31:49.298Z,10.70
2022-09-23T22:34:47.594Z,9.60
2022-09-23T22:37:09.147Z,10.17
2022-09-23T22:39:39.174Z,18.60
2022-09-23T22:42:08.519Z,11.37
2022-09-23T22:44:37.181Z,14.97
2022-09-23T22:47:06.306Z,11.37
2022-09-23T22:49:35.019Z,10.70
2022-09-23T22:52:04.283Z,10.50
2022-09-23T22:54:34.246Z,9.77
2022-09-23T22:57:05.710Z,9.23
2022-09-23T22:59:34.755Z,9.07
2022-09-23T23:02:04.006Z,9.53
2022-09-23T23:04:33.724Z,9.57
2022-09-23T23:07:03.362Z,9.27
2022-09-23T23:09:32.096Z,8.90
2022-09-23T23:12:00.781Z,8.10
2022-09-23T23:14:31.653Z,8.20
2022-09-23T23:17:00.802Z,8.30
2022-09-23T23:19:29.487Z,8.23
2022-09-23T23:21:58.289Z,8.00
2022-09-23T23:24:27.010Z,8.77
2022-09-23T23:26:55.686Z,8.83
2022-09-23T23:29:24.643Z,7.80
2022-09-23T23:31:54.724Z,9.27
2022-09-23T23:34:24.539Z,11.60
2022-09-23T23:36:56.004Z,9.33
2022-09-23T23:39:25.599Z,8.30
2022-09-23T23:41:55.970Z,8.10
2022-09-23T23:44:25.031Z,6.67
2022-09-23T23:46:55.838Z,5.93
2022-09-23T23:49:24.768Z,6.30
2022-09-23T23:51:53.918Z,7.47
2022-09-23T23:54:22.790Z,6.67
2022-09-23T23:56:51.455Z,7.40
2022-09-23T23:59:21.072Z,8.07
